createdAt,value
2023-03-01T00:09:39.099Z,0.30
2023-03-01T00:19:40.510Z,0.40
2023-03-01T00:29:41.899Z,0.30
2023-03-01T00:39:43.668Z,0.40
2023-03-01T00:49:45.061Z,0.30
2023-03-01T00:59:46.556Z,0.30
2023-03-01T01:09:47.989Z,0.30
2023-03-01T01:19:49.326Z,0.30
2023-03-01T01:29:50.610Z,0.30
2023-03-01T01:39:51.901Z,0.33
2023-03-01T01:49:57.887Z,0.40
2023-03-01T02:00:00.656Z,0.30
2023-03-01T02:10:02.891Z,0.40
2023-03-01T02:20:13.177Z,0.40
2023-03-01T02:30:14.589Z,0.30
2023-03-01T02:40:18.323Z,0.30
2023-03-01T02:50:45.093Z,0.30
2023-03-01T03:00:48.025Z,0.33
2023-03-01T03:10:50.860Z,0.40
2023-03-01T03:20:54.112Z,0.30
2023-03-01T03:30:55.443Z,0.30
2023-03-01T03:41:03.872Z,0.40
2023-03-01T03:51:08.787Z,0.40
2023-03-01T04:01:10.199Z,0.40
2023-03-01T04:11:27.228Z,0.40
2023-03-01T04:21:28.516Z,0.40
2023-03-01T04:31:30.013Z,0.30
2023-03-01T04:41:31.566Z,0.40
2023-03-01T04:51:33.492Z,0.30
2023-03-01T05:01:36.271Z,0.33
2023-03-01T05:11:37.904Z,0.30
2023-03-01T05:21:59.860Z,0.30
2023-03-01T05:32:03.448Z,0.40
2023-03-01T05:42:04.782Z,0.40
2023-03-01T05:52:06.084Z,0.40
2023-03-01T06:02:07.409Z,0.40
2023-03-01T06:12:08.704Z,0.30
2023-03-01T06:22:09.994Z,0.30
2023-03-01T06:32:11.333Z,0.40
2023-03-01T06:42:12.681Z,0.40
2023-03-01T06:52:13.982Z,0.40
2023-03-01T07:02:15.962Z,0.30
2023-03-01T07:12:17.471Z,0.37
2023-03-01T07:22:18.808Z,0.40
2023-03-01T07:32:20.164Z,0.30
2023-03-01T07:42:21.546Z,0.40
2023-03-01T07:52:23.414Z,0.40
2023-03-01T08:02:24.685Z,0.40
2023-03-01T08:12:26.004Z,0.40
2023-03-01T08:22:27.373Z,0.40
2023-03-01T08:32:28.715Z,0.40
2023-03-01T08:42:30.065Z,0.30
2023-03-01T08:52:32.723Z,0.30
2023-03-01T09:12:35.541Z,0.32
2023-03-01T09:22:36.911Z,0.30
2023-03-01T09:32:38.235Z,0.30
2023-03-01T09:42:46.521Z,0.20
2023-03-01T09:53:04.513Z,0.40
2023-03-01T10:03:12.011Z,0.20
2023-03-01T10:13:22.354Z,0.20
2023-03-01T10:23:25.245Z,0.10
2023-03-01T10:33:33.826Z,0.35
2023-03-01T10:43:45.913Z,0.10
2023-03-01T10:53:51.126Z,0.10
2023-03-01T11:04:12.906Z,0.20
2023-03-01T11:24:43.627Z,0.20
2023-03-01T11:35:00.251Z,0.20
2023-03-01T11:45:06.843Z,0.10
2023-03-01T11:55:31.008Z,0.13
2023-03-01T12:05:48.329Z,0.10
2023-03-01T12:16:00.319Z,0.10
2023-03-01T12:26:20.560Z,0.20
2023-03-01T12:36:34.244Z,0.20
2023-03-01T12:46:36.153Z,0.10
2023-03-01T12:56:39.092Z,0.20
2023-03-01T13:06:46.196Z,0.25
2023-03-01T13:16:50.317Z,0.28
2023-03-01T13:27:07.081Z,0.10
2023-03-01T13:37:19.739Z,0.10
2023-03-01T13:47:21.682Z,0.10
2023-03-01T13:57:27.039Z,0.10
2023-03-01T14:07:32.086Z,0.10
2023-03-01T14:17:42.125Z,0.10
2023-03-01T14:27:43.831Z,0.10
2023-03-01T14:37:45.144Z,0.10
2023-03-01T14:47:46.745Z,0.10
2023-03-01T14:57:49.164Z,0.10
2023-03-01T15:07:52.238Z,0.10
2023-03-01T15:17:56.191Z,0.10
2023-03-01T15:27:58.756Z,0.10
2023-03-01T15:38:01.434Z,0.10
2023-03-01T15:48:04.912Z,0.25
2023-03-01T15:58:17.951Z,0.10
2023-03-01T16:08:19.621Z,0.10
2023-03-01T16:18:20.983Z,0.10
2023-03-01T16:28:22.289Z,0.10
2023-03-01T16:38:23.624Z,0.10
2023-03-01T16:48:25.266Z,0.10
2023-03-01T16:58:26.596Z,0.10
2023-03-01T17:08:27.902Z,0.10
2023-03-01T17:18:29.711Z,0.10
2023-03-01T17:28:32.502Z,0.10
2023-03-01T17:38:34.112Z,0.10
2023-03-01T17:48:35.362Z,0.70
2023-03-01T17:58:36.811Z,0.10
2023-03-01T18:08:38.114Z,0.17
2023-03-01T18:18:41.131Z,0.10
2023-03-01T18:28:42.667Z,0.10
2023-03-01T18:38:44.206Z,0.10
2023-03-01T18:48:46.019Z,0.15
2023-03-01T18:58:47.403Z,0.20
2023-03-01T19:08:48.738Z,0.20
2023-03-01T19:18:51.404Z,0.20
2023-03-01T19:28:52.943Z,0.20
2023-03-01T19:38:54.594Z,0.32
2023-03-01T19:48:56.689Z,0.30
2023-03-01T19:59:00.475Z,0.20
2023-03-01T20:09:15.327Z,0.35
2023-03-01T20:19:22.124Z,0.30
2023-03-01T20:29:23.646Z,0.30
2023-03-01T20:39:25.087Z,0.30
2023-03-01T20:49:26.854Z,0.30
2023-03-01T20:59:28.166Z,0.20
2023-03-01T21:09:29.482Z,0.20
2023-03-01T21:19:30.742Z,0.20
2023-03-01T21:29:33.144Z,0.30
2023-03-01T21:39:34.834Z,0.20
2023-03-01T21:49:37.556Z,0.30
2023-03-01T22:09:40.558Z,0.30
2023-03-01T22:19:41.836Z,0.30
2023-03-01T22:29:43.337Z,0.30
2023-03-01T22:39:44.622Z,0.30
2023-03-01T22:49:45.939Z,0.30
2023-03-01T22:59:47.250Z,0.30
2023-03-01T23:09:50.990Z,0.30
2023-03-01T23:19:52.698Z,0.30
2023-03-01T23:29:54.021Z,0.30
2023-03-01T23:39:55.335Z,0.30
2023-03-01T23:49:57.262Z,0.30
2023-03-01T23:59:58.546Z,0.30
